Middle Georgia Regional Airport Airport (MCN)

 

Airport Diagram
Current Weather/Forecast (VFR Conditions)
METAR KMCN 172153Z 27010KT 10SM -RA OVC049 14/02 A3018 RMK AO2 RAB28 SLP219 P0000 T01390022
TAF KMCN 171729Z 1718/1818 18005KT P6SM SCT070 BKN200 FM172100 24004KT P6SM VCSH BKN060 FM180100 VRB03KT P6SM VCSH BKN045 FM180800 00000KT P6SM OVC025 FM181200 26003KT P6SM OVC015

All Charts
General
Chart Name Download
AIRPORT DIAGRAM
TAKEOFF MINIMUMS
ALTERNATE MINIMUMS

Approaches
Chart Name Download
ILS OR LOC RWY 05
ILS RWY 05 (SA CAT I - II)
RNAV (GPS) RWY 05
RNAV (GPS) RWY 14
RNAV (GPS) RWY 23
RNAV (GPS) RWY 32
VOR RWY 14
VOR RWY 23


Inbound Traffic (Arrivals)

No inbound traffic.


Outbound Traffic (Departures)

No outbound traffic.